Terminal Aerodrome Forecast
Issued by NWS

Home | Current Version | Previous Version | Graphics & Text | Print | Product List | Glossary On
Versions: 1 2 3 4 5 6 7 8 9 10 11 12 13 14 15 16 17 18
000
FTUS43 KABR 130500
TAFPIR
TAF
KPIR 130532Z 1306/1406 36019KT P6SM BKN090
     FM130900 36021G31KT P6SM VCSH OVC050
     FM131200 35025G35KT P6SM OVC015
     FM131700 35026G36KT P6SM SCT025 BKN040
     FM140300 35012KT P6SM SCT250=

USA.gov is the U.S. government's official web portal to all federal, state and local government web resources and services.